Flight Track Log - Related Links

Times and Time Zones

All times are in EDT time to prevent confusion due to time zone crossing. See the N677F flight status page for this flight to view local times or setup timezone preferences in your user account.

Time Position Orientation Groundspeed Altitude Reporting Facility
EDT Latitude Longitude Course Direction KTS MPH feet Rate Location/Type
Mon 11:01:31 PM 39.9167 -105.1333 360° North 7 8 5,500  Level Denver TRACON
Mon 11:02:31 PM 39.9167 -105.1333 360° North 6 7 5,600 50 Climbing Denver TRACON
Mon 11:03:31 PM 39.9167 -105.1333 263° West 1 1 5,600  Level Denver TRACON
Mon 11:04:31 PM 39.9167 -105.1333 263° West 8 9 5,600  Level Denver TRACON
Mon 11:05:31 PM 39.9167 -105.1167 90° East 76 87 5,600 593 Level Denver TRACON
Mon 11:06:02 PM 39.8958 -105.0917 137° Southeast 214 246 6,500 1,696 Climbing Denver Center
Mon 11:07:03 PM 39.8414 -105.0608 156° South 220 253 8,200 2,146 Climbing Denver Center
Mon 11:08:05 PM 39.7628 -105.0231 160° South 277 319 10,900 1,805 Climbing Denver Center
Mon 11:09:06 PM 39.6778 -104.9778 158° South 333 383 11,900 683 Climbing Denver Center
Mon 11:10:08 PM 39.6094 -104.8828 133° Southeast 369 425 12,300 1,512 Climbing Denver Center
Mon 11:11:09 PM 39.5392 -104.7706 129° Southeast 378 435 15,000 2,044 Climbing Denver Center
Mon 11:12:23 PM 39.4456 -104.7011 150° Southeast 399 459 16,900 1,985 Climbing Denver Center
Mon 11:13:25 PM 39.3100 -104.6956 178° South 399 459 19,500 2,195 Climbing Denver Center
Mon 11:14:26 PM 39.2158 -104.7128 188° South 405 466 21,400 1,902 Climbing Denver Center
Mon 11:15:28 PM 39.0794 -104.7297 186° South 413 475 23,400 1,839 Climbing Denver Center
Mon 11:16:30 PM 38.9603 -104.7053 171° South 438 504 25,200 1,659 Climbing Denver Center
Mon 11:17:31 PM 38.8450 -104.6539 161° South 433 498 26,800 1,268 Climbing Denver Center
Mon 11:18:33 PM 38.7239 -104.6019 161° South 457 526 27,800 1,171 Climbing Denver Center
Mon 11:19:34 PM 38.5983 -104.5517 163° South 471 542 29,200 1,463 Climbing Denver Center
Mon 11:20:36 PM 38.4467 -104.4894 162° South 478 550 30,800 878 Climbing Denver Center
Mon 11:21:37 PM 38.3200 -104.4381 162° South 478 550 31,000 98 Climbing Denver Center
Mon 11:22:39 PM 38.2078 -104.3633 152° Southeast 475 547 31,000 293 Level Denver Center
Mon 11:23:40 PM 38.0828 -104.2592 147° Southeast 479 551 31,600 1,317 Climbing Denver Center
Mon 11:24:42 PM 37.9781 -104.1744 147° Southeast 471 542 33,700 1,597 Climbing Denver Center
Mon 11:25:44 PM 37.8761 -104.0914 147° Southeast 459 528 34,900 1,366 Climbing Denver Center
Mon 11:26:45 PM 37.7553 -103.9939 147° Southeast 457 526 36,500 1,512 Climbing Denver Center
Mon 11:27:47 PM 37.6522 -103.9089 147° Southeast 456 525 38,000 1,463 Climbing Denver Center
Mon 11:28:48 PM 37.5472 -103.8250 148° Southeast 454 522 39,500 1,220 Climbing Denver Center
Mon 11:29:50 PM 37.4286 -103.7325 148° Southeast 444 511 40,500 732 Climbing Denver Center
Mon 11:30:51 PM 37.3275 -103.6533 148° Southeast 444 511 41,000 286 Climbing Denver Center
Mon 11:31:35 PM 37.2456 -103.5881 148° Southeast 440 506 41,000  Level Albuquerque Center
Mon 11:32:36 PM 37.1525 -103.4967 142° Southeast 442 509 41,000  Level Albuquerque Center
Mon 11:33:38 PM 37.0581 -103.4058 142° Southeast 445 512 41,000  Level Albuquerque Center
Mon 11:34:39 PM 36.9500 -103.3008 142° Southeast 442 509 41,000  Level Albuquerque Center
Mon 11:35:41 PM 36.8558 -103.2117 143° Southeast 442 509 41,000  Level Albuquerque Center
Mon 11:36:43 PM 36.7472 -103.1061 142° Southeast 443 510 41,000  Level Albuquerque Center
Mon 11:37:44 PM 36.6522 -103.0183 143° Southeast 443 510 41,000  Level Albuquerque Center
Mon 11:38:46 PM 36.5467 -102.9172 142° Southeast 446 513 41,000  Level Albuquerque Center
Mon 11:39:48 PM 36.4525 -102.8281 143° Southeast 448 516 41,000  Level Albuquerque Center
Mon 11:40:49 PM 36.3556 -102.7347 142° Southeast 444 511 41,000  Level Albuquerque Center
Mon 11:41:51 PM 36.2572 -102.6439 143° Southeast 442 509 41,000  Level Albuquerque Center
Mon 11:42:52 PM 36.1394 -102.5336 143° Southeast 442 509 41,000  Level Albuquerque Center
Mon 11:43:54 PM 36.0411 -102.4408 143° Southeast 444 511 41,000  Level Albuquerque Center
Mon 11:44:55 PM 35.9436 -102.3508 143° Southeast 441 507 41,000  Level Albuquerque Center
Mon 11:45:57 PM 35.8453 -102.2592 143° Southeast 442 509 41,000  Level Albuquerque Center
Mon 11:46:58 PM 35.7461 -102.1669 143° Southeast 446 513 41,000  Level Albuquerque Center
Mon 11:47:59 PM 35.6475 -102.0758 143° Southeast 445 512 41,000  Level Albuquerque Center
Mon 11:49:01 PM 35.5481 -101.9850 143° Southeast 445 512 41,000  Level Albuquerque Center
Mon 11:50:02 PM 35.4342 -101.8792 143° Southeast 446 513 41,000  Level Albuquerque Center
Mon 11:51:04 PM 35.3339 -101.7811 141° Southeast 454 522 41,000  Level Albuquerque Center
Mon 11:52:05 PM 35.2658 -101.6492 122° Southeast 459 528 41,000  Level Albuquerque Center
Mon 11:53:06 PM 35.2425 -101.4989 101° East 467 537 41,000  Level Albuquerque Center
Mon 11:54:08 PM 35.2519 -101.3167 86° East 474 545 41,000  Level Albuquerque Center
Mon 11:55:09 PM 35.2603 -101.1583 86° East 471 542 41,000  Level Albuquerque Center
Mon 11:56:10 PM 35.2764 -100.9992 83° East 472 543 41,000  Level Albuquerque Center
Mon 11:57:12 PM 35.2931 -100.8394 83° East 473 544 41,000  Level Albuquerque Center
Mon 11:58:13 PM 35.3108 -100.6644 83° East 478 550 41,000  Level Albuquerque Center
Mon 11:59:14 PM 35.3272 -100.5039 83° East 476 548 41,000  Level Albuquerque Center
Tue 12:00:16 AM 35.3425 -100.3431 83° East 476 548 41,000  Level Albuquerque Center
Tue 12:01:17 AM 35.3586 -100.1831 83° East 475 547 41,000  Level Albuquerque Center
Tue 12:02:18 AM 35.3728 -100.0217 84° East 476 548 41,000  Level Albuquerque Center
Tue 12:03:20 AM 35.3886 -99.8619 83° East 473 544 41,000 98 Level Albuquerque Center
Tue 12:04:21 AM 35.4019 -99.7036 84° East 470 541 41,200 619 Climbing Albuquerque Center
Tue 12:04:57 AM 35.4097 -99.6064 84° East 475 547 42,000 1,000 Climbing Fort Worth Center
Tue 12:05:57 AM 35.4250 -99.4514 83° East 464 534 42,800 500 Climbing Fort Worth Center
Tue 12:06:57 AM 35.4378 -99.2964 84° East 459 528 43,000 100 Climbing Fort Worth Center
Tue 12:07:57 AM 35.4528 -99.1361 83° East 465 535 43,000  Level Fort Worth Center
Tue 12:08:57 AM 35.4672 -98.9786 84° East 465 535 43,000  Level Fort Worth Center
Tue 12:09:57 AM 35.4797 -98.8206 84° East 465 535 43,000  Level Fort Worth Center
Tue 12:10:57 AM 35.4939 -98.6656 84° East 465 535 43,000  Level Fort Worth Center
Tue 12:11:57 AM 35.5056 -98.5075 85° East 465 535 43,000  Level Fort Worth Center
Tue 12:12:57 AM 35.5214 -98.3547 83° East 460 529 43,000  Level Fort Worth Center
Tue 12:13:57 AM 35.5331 -98.1917 85° East 466 536 43,000  Level Fort Worth Center
Tue 12:14:57 AM 35.5464 -98.0311 84° East 466 536 43,000  Level Fort Worth Center
Tue 12:15:57 AM 35.5575 -97.8703 85° East 466 536 43,000  Level Fort Worth Center
Tue 12:18:09 AM 35.5872 -97.5164 84° East 470 541 43,000  Level Kansas City Center
Tue 12:18:45 AM 35.5981 -97.4211 82° East 457 526 43,000  Level Fort Worth Center
Tue 12:19:45 AM 35.6083 -97.2400 86° East 470 541 43,000  Level Fort Worth Center
Tue 12:20:45 AM 35.6164 -97.0792 86° East 476 548 43,000  Level Fort Worth Center
Tue 12:21:45 AM 35.6264 -96.9208 86° East 476 548 43,000  Level Fort Worth Center
Tue 12:22:45 AM 35.6361 -96.7625 86° East 471 542 43,000  Level Fort Worth Center
Tue 12:23:45 AM 35.6456 -96.6014 86° East 471 542 43,000  Level Fort Worth Center
Tue 12:24:45 AM 35.6547 -96.4428 86° East 471 542 43,000  Level Fort Worth Center
Tue 12:25:45 AM 35.6661 -96.2817 85° East 466 536 43,000  Level Fort Worth Center
Tue 12:26:15 AM 35.6681 -96.2231 88° East 472 543 43,000  Level Kansas City Center
Tue 12:27:16 AM 35.6797 -96.0558 85° East 476 548 43,000  Level Kansas City Center
Tue 12:28:16 AM 35.6889 -95.8933 86° East 478 550 43,000  Level Kansas City Center
Tue 12:29:17 AM 35.6772 -95.7314 95° East 484 557 43,000  Level Kansas City Center
Tue 12:30:18 AM 35.5956 -95.6047 128° Southeast 483 556 43,000  Level Kansas City Center
Tue 12:31:19 AM 35.4708 -95.5536 162° South 476 548 43,000  Level Kansas City Center
Tue 12:32:19 AM 35.3656 -95.4544 142° Southeast 485 558 43,000  Level Kansas City Center
Tue 12:33:07 AM 35.2867 -95.3631 137° Southeast 481 554 43,000  Level Memphis Center
Tue 12:34:07 AM 35.1931 -95.2456 134° Southeast 474 545 43,000  Level Memphis Center
Tue 12:35:07 AM 35.0956 -95.1283 135° Southeast 479 551 43,000  Level Memphis Center
Tue 12:35:45 AM 35.0292 -95.0403 133° Southeast 480 552 43,000  Level Fort Worth Center
Tue 12:36:45 AM 34.9333 -94.9264 136° Southeast 486 559 43,000  Level Fort Worth Center
Tue 12:37:45 AM 34.8497 -94.8200 134° Southeast 481 554 43,000  Level Fort Worth Center
Tue 12:38:45 AM 34.7511 -94.6942 134° Southeast 475 547 43,000  Level Fort Worth Center
Tue 12:39:45 AM 34.6547 -94.5811 136° Southeast 475 547 43,000  Level Fort Worth Center
Tue 12:40:45 AM 34.5353 -94.5575 171° South 420 483 43,000  Level Fort Worth Center
Tue 12:41:45 AM 34.4775 -94.6853 241° Southwest 313 360 43,000  Level Fort Worth Center
Tue 12:42:45 AM 34.4828 -94.8336 273° West 331 381 43,000  Level Fort Worth Center
Tue 12:43:45 AM 34.5128 -94.9689 285° West 365 420 43,000  Level Fort Worth Center
Tue 12:44:45 AM 34.5383 -95.1144 282° West 414 476 43,000  Level Fort Worth Center
Tue 12:45:45 AM 34.5700 -95.2472 286° West 419 482 43,000  Level Fort Worth Center
Tue 12:46:45 AM 34.5933 -95.3931 281° West 430 495 43,000  Level Fort Worth Center
Tue 12:47:45 AM 34.6136 -95.5061 282° West 430 495 43,000  Level Fort Worth Center
Tue 12:48:45 AM 34.6433 -95.6694 283° West 424 488 43,000  Level Fort Worth Center
Tue 12:49:45 AM 34.6722 -95.8053 285° West 419 482 43,000  Level Fort Worth Center
Tue 12:50:45 AM 34.6989 -95.9461 283° West 419 482 43,000  Level Fort Worth Center
Tue 12:51:45 AM 34.7256 -96.0872 283° West 424 488 43,000  Level Fort Worth Center
Tue 12:52:45 AM 34.7519 -96.2283 283° West 429 494 43,000  Level Fort Worth Center
Tue 12:53:45 AM 34.7783 -96.3694 283° West 429 494 43,000  Level Fort Worth Center
Tue 12:54:45 AM 34.8044 -96.5083 283° West 429 494 43,000  Level Fort Worth Center
Tue 12:55:45 AM 34.8303 -96.6497 283° West 429 494 43,000  Level Fort Worth Center
Tue 12:56:45 AM 34.8561 -96.7936 282° West 429 494 43,000  Level Fort Worth Center
Tue 12:57:45 AM 34.8817 -96.9325 283° West 429 494 43,000  Level Fort Worth Center
Tue 12:58:45 AM 34.9072 -97.0717 283° West 429 494 43,000  Level Fort Worth Center
Tue 12:59:45 AM 34.9325 -97.2161 282° West 429 494 43,000  Level Fort Worth Center
Tue 01:00:45 AM 34.9536 -97.3425 282° West 429 494 43,000  Level Fort Worth Center
Tue 01:01:45 AM 34.9808 -97.4869 283° West 429 494 43,000  Level Fort Worth Center
Tue 01:02:45 AM 35.0036 -97.6289 281° West 429 494 43,000  Level Fort Worth Center
Tue 01:03:45 AM 35.0322 -97.7761 283° West 429 494 43,000  Level Fort Worth Center
Tue 01:04:45 AM 35.0589 -97.9208 283° West 434 499 43,000  Level Fort Worth Center
Tue 01:05:45 AM 35.0833 -98.0606 282° West 434 499 43,000  Level Fort Worth Center
Tue 01:06:45 AM 35.1075 -98.2078 281° West 434 499 43,000  Level Fort Worth Center
Tue 01:07:45 AM 35.1336 -98.3503 283° West 429 494 43,000  Level Fort Worth Center
Tue 01:08:45 AM 35.1575 -98.4853 282° West 429 494 43,000  Level Fort Worth Center
Tue 01:09:45 AM 35.1814 -98.6328 281° West 423 487 43,000  Level Fort Worth Center
Tue 01:10:45 AM 35.2047 -98.7781 281° West 433 498 43,000  Level Fort Worth Center
Tue 01:11:45 AM 35.2281 -98.9233 281° West 433 498 43,000  Level Fort Worth Center
Tue 01:12:45 AM 35.2533 -99.0711 282° West 438 504 43,000  Level Fort Worth Center
Tue 01:13:45 AM 35.2786 -99.2139 282° West 438 504 43,000  Level Fort Worth Center
Tue 01:14:45 AM 35.3072 -99.3750 282° West 438 504 43,000  Level Fort Worth Center
Tue 01:15:45 AM 35.3278 -99.5231 280° West 438 504 43,000  Level Fort Worth Center
Tue 01:16:45 AM 35.2611 -99.6408 235° Southwest 397 457 43,000  Level Fort Worth Center
Tue 01:17:45 AM 35.1431 -99.5994 164° South 298 343 43,000  Level Fort Worth Center
Tue 01:18:45 AM 35.1164 -99.4414 102° East 286 329 43,000  Level Fort Worth Center
Tue 01:19:45 AM 35.1253 -99.2844 86° East 355 409 43,000  Level Fort Worth Center
Tue 01:20:45 AM 35.1381 -99.1247 84° East 410 472 43,000  Level Fort Worth Center
Tue 01:21:45 AM 35.1503 -98.9725 84° East 441 507 43,000  Level Fort Worth Center
Tue 01:22:45 AM 35.1606 -98.8153 85° East 453 521 43,000  Level Fort Worth Center
Tue 01:23:45 AM 35.1728 -98.6581 85° East 463 533 43,000  Level Fort Worth Center
Tue 01:24:45 AM 35.1825 -98.5008 86° East 463 533 43,000  Level Fort Worth Center
Tue 01:25:45 AM 35.1939 -98.3714 84° East 448 516 43,000  Level Fort Worth Center
Tue 01:26:45 AM 35.2014 -98.2139 87° East 448 516 43,000  Level Fort Worth Center
Tue 01:27:45 AM 35.2106 -98.0564 86° East 453 521 43,000  Level Fort Worth Center
Tue 01:28:45 AM 35.2217 -97.8964 85° East 458 527 43,000  Level Fort Worth Center
Tue 01:29:45 AM 35.2286 -97.7389 87° East 458 527 43,000  Level Fort Worth Center
Tue 01:30:45 AM 35.2372 -97.5789 86° East 458 527 43,000  Level Fort Worth Center
Tue 01:31:45 AM 35.2539 -97.3983 83° East 482 555 43,000  Level Fort Worth Center
Tue 01:32:45 AM 35.2664 -97.2381 84° East 477 549 43,000  Level Fort Worth Center
Tue 01:33:45 AM 35.2639 -97.0806 91° East 472 543 43,000  Level Fort Worth Center
Tue 01:34:45 AM 35.2739 -96.9228 86° East 472 543 43,000  Level Fort Worth Center
Tue 01:35:45 AM 35.2836 -96.7700 85° East 459 528 43,000  Level Fort Worth Center
Tue 01:36:45 AM 35.2328 -96.6333 114° Southeast 428 493 43,000  Level Fort Worth Center
Tue 01:37:45 AM 35.1139 -96.6469 185° South 321 369 43,000  Level Fort Worth Center
Tue 01:38:45 AM 35.0564 -96.7769 242° Southwest 275 316 43,000  Level Fort Worth Center
Tue 01:39:45 AM 35.0611 -96.9214 272° West 333 383 43,000  Level Fort Worth Center
Tue 01:40:45 AM 35.0700 -97.0686 274° West 381 438 43,000  Level Fort Worth Center
Tue 01:41:45 AM 35.0767 -97.2156 273° West 412 474 43,000  Level Fort Worth Center
Tue 01:42:45 AM 35.0831 -97.3475 273° West 429 494 43,000  Level Fort Worth Center
Tue 01:43:45 AM 35.0914 -97.4972 274° West 441 507 43,000  Level Fort Worth Center
Tue 01:44:45 AM 35.0994 -97.6444 274° West 441 507 43,000  Level Fort Worth Center
Tue 01:45:45 AM 35.1075 -97.7917 274° West 441 507 43,000  Level Fort Worth Center
Tue 01:46:45 AM 35.1153 -97.9364 274° West 441 507 43,000  Level Fort Worth Center
Tue 01:47:45 AM 35.1228 -98.0811 274° West 441 507 43,000  Level Fort Worth Center
Tue 01:48:45 AM 35.1303 -98.2283 274° West 441 507 43,000 -150 Level Fort Worth Center
Tue 01:49:45 AM 35.1375 -98.3758 273° West 441 507 42,700 -500 Descending Fort Worth Center
Tue 01:50:45 AM 35.1428 -98.5156 273° West 441 507 42,000 -250 Descending Fort Worth Center
Tue 01:51:45 AM 35.1497 -98.6628 273° West 436 502 42,200 -200 Climbing Fort Worth Center
Tue 01:52:45 AM 35.1544 -98.8128 272° West 436 502 41,600 -50 Descending Fort Worth Center
Tue 01:53:45 AM 35.1611 -98.9575 273° West 441 507 42,100 200 Climbing Fort Worth Center
Tue 01:54:45 AM 35.1653 -99.1050 272° West 441 507 42,000 100 Descending Fort Worth Center
Tue 01:55:45 AM 35.1717 -99.2525 273° West 441 507 42,300 400 Climbing Fort Worth Center
Tue 01:56:45 AM 35.1756 -99.4022 272° West 441 507 42,800 240 Climbing Fort Worth Center
Tue 01:57:50 AM 35.1833 -99.5797 273° West 438 504 42,800  Level Albuquerque Center
Tue 01:58:51 AM 35.1872 -99.7281 272° West 436 502 42,800 50 Level Albuquerque Center
Tue 01:59:51 AM 35.1919 -99.8767 272° West 436 502 42,900 98 Climbing Albuquerque Center
Tue 02:00:53 AM 35.1983 -100.0264 273° West 438 504 43,000 49 Climbing Albuquerque Center
Tue 02:01:53 AM 35.2017 -100.1772 272° West 442 509 43,000  Level Albuquerque Center
Tue 02:02:53 AM 35.2058 -100.3278 272° West 442 509 43,000  Level Albuquerque Center
Tue 02:03:54 AM 35.2106 -100.4781 272° West 441 507 43,000  Level Albuquerque Center
Tue 02:04:54 AM 35.2136 -100.6289 271° West 442 509 43,000  Level Albuquerque Center
Tue 02:05:55 AM 35.2175 -100.7558 272° West 441 507 43,000  Level Albuquerque Center
Tue 02:06:55 AM 35.2200 -100.9058 271° West 442 509 43,000  Level Albuquerque Center
Tue 02:07:55 AM 35.2233 -101.0556 272° West 443 510 43,000  Level Albuquerque Center
Tue 02:08:56 AM 35.2275 -101.2353 272° West 442 509 43,000  Level Albuquerque Center
Tue 02:09:56 AM 35.2300 -101.3825 271° West 444 511 43,000  Level Albuquerque Center
Tue 02:10:56 AM 35.2372 -101.5375 273° West 452 520 43,000  Level Albuquerque Center
Tue 02:11:57 AM 35.2744 -101.6842 287° West 442 509 43,000  Level Albuquerque Center
Tue 02:12:57 AM 35.3542 -101.8067 309° West 451 519 43,000  Level Albuquerque Center
Tue 02:13:57 AM 35.4619 -101.8944 326° Northwest 456 525 43,000  Level Albuquerque Center
Tue 02:14:58 AM 35.5647 -101.9631 332° Northwest 464 534 43,000  Level Albuquerque Center
Tue 02:15:58 AM 35.6786 -102.0375 332° Northwest 464 534 43,000  Level Albuquerque Center
Tue 02:16:58 AM 35.7911 -102.1136 331° Northwest 463 533 43,000  Level Albuquerque Center
Tue 02:17:59 AM 35.9047 -102.1894 332° Northwest 463 533 43,000  Level Albuquerque Center
Tue 02:18:59 AM 36.0192 -102.2669 331° Northwest 467 537 43,000  Level Albuquerque Center
Tue 02:19:59 AM 36.1325 -102.3436 331° Northwest 465 535 43,000  Level Albuquerque Center
Tue 02:21:00 AM 36.2456 -102.4206 331° Northwest 465 535 43,000  Level Albuquerque Center
Tue 02:22:00 AM 36.3600 -102.4986 331° Northwest 468 539 43,000  Level Albuquerque Center
Tue 02:23:00 AM 36.4742 -102.5772 331° Northwest 470 541 43,000  Level Albuquerque Center
Tue 02:24:00 AM 36.5872 -102.6542 331° Northwest 465 535 43,000  Level Albuquerque Center
Tue 02:25:01 AM 36.7172 -102.7442 331° Northwest 469 540 43,000  Level Albuquerque Center
Tue 02:26:01 AM 36.8267 -102.8197 331° Northwest 469 540 43,000  Level Albuquerque Center
Tue 02:27:01 AM 36.9350 -102.8944 331° Northwest 466 536 43,000  Level Albuquerque Center
Tue 02:28:01 AM 37.0433 -102.9706 331° Northwest 466 536 43,000  Level Albuquerque Center
Tue 02:29:38 AM 37.2053 -103.0847 331° Northwest 466 536 43,000  Level Albuquerque Center
Tue 02:30:38 AM 37.3514 -103.1858 331° Northwest 469 540 43,000  Level Albuquerque Center
Tue 02:31:38 AM 37.4603 -103.2636 330° Northwest 471 542 43,000  Level Albuquerque Center
Tue 02:32:39 AM 37.5694 -103.3397 331° Northwest 471 542 43,000  Level Albuquerque Center
Tue 02:33:39 AM 37.6942 -103.4283 331° Northwest 465 535 43,000  Level Albuquerque Center
Tue 02:34:53 AM 37.8350 -103.5283 331° Northwest 461 531 43,000 -269 Level Denver Center
Tue 02:35:53 AM 37.9422 -103.6053 330° Northwest 467 537 42,400 -1,289 Descending Denver Center
Tue 02:36:54 AM 38.0497 -103.6814 331° Northwest 464 534 40,400 -2,182 Descending Denver Center
Tue 02:37:54 AM 38.1736 -103.7722 330° Northwest 465 535 38,000 -2,182 Descending Denver Center
Tue 02:38:55 AM 38.2825 -103.8522 330° Northwest 473 544 36,000 -1,983 Descending Denver Center
Tue 02:39:55 AM 38.3919 -103.9292 331° Northwest 471 542 34,000 -2,150 Descending Denver Center
Tue 02:40:55 AM 38.5200 -104.0236 330° Northwest 476 548 31,700 -2,182 Descending Denver Center
Tue 02:41:56 AM 38.6311 -104.1050 330° Northwest 480 552 29,600 -1,934 Descending Denver Center
Tue 02:42:56 AM 38.7286 -104.1786 330° Northwest 468 539 27,800 -1,934 Descending Denver Center
Tue 02:43:57 AM 38.8403 -104.2597 331° Northwest 452 520 25,700 -2,132 Descending Denver Center
Tue 02:44:57 AM 38.9569 -104.3458 330° Northwest 436 502 23,500 -1,983 Descending Denver Center
Tue 02:45:58 AM 39.0528 -104.4175 330° Northwest 419 482 21,700 -1,934 Descending Denver Center
Tue 02:46:58 AM 39.1564 -104.4936 330° Northwest 403 464 19,600 -2,000 Descending Denver Center
Tue 02:47:58 AM 39.2486 -104.5636 330° Northwest 382 440 17,700 -1,934 Descending Denver Center
Tue 02:48:59 AM 39.3308 -104.6242 330° Northwest 337 388 15,700 -1,983 Descending Denver Center
Tue 02:49:59 AM 39.4033 -104.6797 329° Northwest 307 353 13,700 -2,000 Descending Denver Center
Tue 02:50:59 AM 39.4753 -104.7317 331° Northwest 299 344 11,700 -1,983 Descending Denver Center
Tue 02:52:00 AM 39.5456 -104.7856 329° Northwest 298 343 9,700 -1,289 Descending Denver Center
Tue 02:53:00 AM 39.6169 -104.8381 330° Northwest 298 343 9,100 -446 Descending Denver Center
Tue 02:54:01 AM 39.6853 -104.8817 334° Northwest 276 318 8,800 -397 Descending Denver Center
Tue 02:55:01 AM 39.7422 -104.9150 336° Northwest 213 245 8,300 -350 Descending Denver Center
Tue 02:56:01 AM 39.7864 -104.9422 335° Northwest 201 231 8,100 -200 Descending Denver Center

Login

Don't have an account? Register now (free) for customized features, flight alerts, and more!